sensor_id;sensor_type;location;lat;lon;timestamp;temperature;humidity
12164;DHT22;6145;50.192;10.064;2023-08-06T00:01:25;19.20;85.10
12164;DHT22;6145;50.192;10.064;2023-08-06T00:03:53;18.70;84.80
12164;DHT22;6145;50.192;10.064;2023-08-06T00:06:20;18.70;84.30
12164;DHT22;6145;50.192;10.064;2023-08-06T00:08:47;19.10;85.00
12164;DHT22;6145;50.192;10.064;2023-08-06T00:11:17;18.70;84.20
12164;DHT22;6145;50.192;10.064;2023-08-06T00:13:44;18.70;84.10
12164;DHT22;6145;50.192;10.064;2023-08-06T00:16:12;18.80;84.70
12164;DHT22;6145;50.192;10.064;2023-08-06T00:18:39;18.60;84.40
12164;DHT22;6145;50.192;10.064;2023-08-06T00:21:08;18.60;84.70
12164;DHT22;6145;50.192;10.064;2023-08-06T00:23:35;18.70;85.10
12164;DHT22;6145;50.192;10.064;2023-08-06T00:26:02;18.50;85.00
12164;DHT22;6145;50.192;10.064;2023-08-06T00:28:29;19.40;86.20
12164;DHT22;6145;50.192;10.064;2023-08-06T00:30:56;18.60;85.50
12164;DHT22;6145;50.192;10.064;2023-08-06T00:33:23;18.30;85.00
12164;DHT22;6145;50.192;10.064;2023-08-06T00:35:52;18.60;85.30
12164;DHT22;6145;50.192;10.064;2023-08-06T00:38:21;18.70;85.70
12164;DHT22;6145;50.192;10.064;2023-08-06T00:40:47;18.80;85.40
12164;DHT22;6145;50.192;10.064;2023-08-06T00:43:14;18.60;85.20
12164;DHT22;6145;50.192;10.064;2023-08-06T00:45:41;18.90;85.40
12164;DHT22;6145;50.192;10.064;2023-08-06T00:48:08;18.40;85.60
12164;DHT22;6145;50.192;10.064;2023-08-06T00:50:35;18.60;86.00
12164;DHT22;6145;50.192;10.064;2023-08-06T00:53:02;18.50;86.10
12164;DHT22;6145;50.192;10.064;2023-08-06T00:55:31;18.40;85.90
12164;DHT22;6145;50.192;10.064;2023-08-06T00:57:59;18.90;86.80
12164;DHT22;6145;50.192;10.064;2023-08-06T01:00:29;18.40;86.10
12164;DHT22;6145;50.192;10.064;2023-08-06T01:02:56;18.40;86.30
12164;DHT22;6145;50.192;10.064;2023-08-06T01:05:25;18.30;86.60
12164;DHT22;6145;50.192;10.064;2023-08-06T01:08:11;19.90;87.60
12164;DHT22;6145;50.192;10.064;2023-08-06T01:10:50;18.30;86.20
12164;DHT22;6145;50.192;10.064;2023-08-06T01:13:23;20.40;88.00
12164;DHT22;6145;50.192;10.064;2023-08-06T01:15:54;18.40;86.00
12164;DHT22;6145;50.192;10.064;2023-08-06T01:18:22;18.30;86.10
12164;DHT22;6145;50.192;10.064;2023-08-06T01:20:51;18.30;85.90
12164;DHT22;6145;50.192;10.064;2023-08-06T01:23:18;18.40;86.20
12164;DHT22;6145;50.192;10.064;2023-08-06T01:25:57;18.30;86.50
12164;DHT22;6145;50.192;10.064;2023-08-06T01:28:32;18.40;86.50
12164;DHT22;6145;50.192;10.064;2023-08-06T01:31:02;19.70;88.40
12164;DHT22;6145;50.192;10.064;2023-08-06T01:33:33;18.20;87.00
12164;DHT22;6145;50.192;10.064;2023-08-06T01:36:06;18.60;88.20
12164;DHT22;6145;50.192;10.064;2023-08-06T01:38:34;18.20;87.30
12164;DHT22;6145;50.192;10.064;2023-08-06T01:41:01;18.10;86.80
12164;DHT22;6145;50.192;10.064;2023-08-06T01:43:28;18.20;86.80
12164;DHT22;6145;50.192;10.064;2023-08-06T01:45:54;18.30;87.10
12164;DHT22;6145;50.192;10.064;2023-08-06T01:48:21;18.10;86.70
12164;DHT22;6145;50.192;10.064;2023-08-06T01:50:48;18.20;87.00
12164;DHT22;6145;50.192;10.064;2023-08-06T01:53:16;18.20;87.40
12164;DHT22;6145;50.192;10.064;2023-08-06T01:55:49;18.10;87.40
12164;DHT22;6145;50.192;10.064;2023-08-06T01:58:18;18.10;87.40
12164;DHT22;6145;50.192;10.064;2023-08-06T02:00:45;18.40;87.30
12164;DHT22;6145;50.192;10.064;2023-08-06T02:03:12;18.10;87.50
12164;DHT22;6145;50.192;10.064;2023-08-06T02:05:42;17.20;86.60
12164;DHT22;6145;50.192;10.064;2023-08-06T02:08:09;18.80;88.40
12164;DHT22;6145;50.192;10.064;2023-08-06T02:10:38;18.60;88.10
12164;DHT22;6145;50.192;10.064;2023-08-06T02:13:05;18.10;87.90
12164;DHT22;6145;50.192;10.064;2023-08-06T02:15:32;18.10;87.60
12164;DHT22;6145;50.192;10.064;2023-08-06T02:17:59;19.10;88.80
12164;DHT22;6145;50.192;10.064;2023-08-06T02:20:26;18.00;87.80
12164;DHT22;6145;50.192;10.064;2023-08-06T02:22:55;18.10;87.80
12164;DHT22;6145;50.192;10.064;2023-08-06T02:25:24;18.00;88.10
12164;DHT22;6145;50.192;10.064;2023-08-06T02:27:52;18.00;88.40
12164;DHT22;6145;50.192;10.064;2023-08-06T02:30:19;18.00;88.40
12164;DHT22;6145;50.192;10.064;2023-08-06T02:32:47;18.00;88.60
12164;DHT22;6145;50.192;10.064;2023-08-06T02:35:22;17.90;89.50
12164;DHT22;6145;50.192;10.064;2023-08-06T02:37:49;17.90;89.00
12164;DHT22;6145;50.192;10.064;2023-08-06T02:40:16;18.10;89.30
12164;DHT22;6145;50.192;10.064;2023-08-06T02:42:43;17.90;89.20
12164;DHT22;6145;50.192;10.064;2023-08-06T02:45:12;18.20;89.00
12164;DHT22;6145;50.192;10.064;2023-08-06T02:47:41;17.90;88.50
12164;DHT22;6145;50.192;10.064;2023-08-06T02:50:09;17.90;88.40
12164;DHT22;6145;50.192;10.064;2023-08-06T02:52:35;17.20;87.90
12164;DHT22;6145;50.192;10.064;2023-08-06T02:55:05;17.90;88.70
12164;DHT22;6145;50.192;10.064;2023-08-06T02:57:32;17.90;88.50
12164;DHT22;6145;50.192;10.064;2023-08-06T02:59:58;17.90;88.40
12164;DHT22;6145;50.192;10.064;2023-08-06T03:02:27;17.80;88.50
12164;DHT22;6145;50.192;10.064;2023-08-06T03:04:54;17.90;88.60
12164;DHT22;6145;50.192;10.064;2023-08-06T03:07:21;17.80;88.30
12164;DHT22;6145;50.192;10.064;2023-08-06T03:09:48;17.80;88.00
12164;DHT22;6145;50.192;10.064;2023-08-06T03:12:15;17.70;88.10
12164;DHT22;6145;50.192;10.064;2023-08-06T03:14:42;18.00;88.40
12164;DHT22;6145;50.192;10.064;2023-08-06T03:17:09;18.10;88.50
12164;DHT22;6145;50.192;10.064;2023-08-06T03:19:38;17.70;88.10
12164;DHT22;6145;50.192;10.064;2023-08-06T03:22:05;17.80;88.20
12164;DHT22;6145;50.192;10.064;2023-08-06T03:24:35;17.60;88.20
12164;DHT22;6145;50.192;10.064;2023-08-06T03:27:02;17.60;88.50
12164;DHT22;6145;50.192;10.064;2023-08-06T03:29:29;17.60;88.30
12164;DHT22;6145;50.192;10.064;2023-08-06T03:31:55;18.00;88.70
12164;DHT22;6145;50.192;10.064;2023-08-06T03:34:22;15.50;86.20
12164;DHT22;6145;50.192;10.064;2023-08-06T03:36:56;17.80;88.70
12164;DHT22;6145;50.192;10.064;2023-08-06T03:39:22;19.30;90.20
12164;DHT22;6145;50.192;10.064;2023-08-06T03:41:49;17.80;89.40
12164;DHT22;6145;50.192;10.064;2023-08-06T03:44:16;17.60;88.90
12164;DHT22;6145;50.192;10.064;2023-08-06T03:46:46;17.60;89.20
12164;DHT22;6145;50.192;10.064;2023-08-06T03:49:13;17.60;89.20
12164;DHT22;6145;50.192;10.064;2023-08-06T03:51:40;17.60;89.60
12164;DHT22;6145;50.192;10.064;2023-08-06T03:54:08;18.10;90.00
12164;DHT22;6145;50.192;10.064;2023-08-06T03:56:38;17.50;89.70
12164;DHT22;6145;50.192;10.064;2023-08-06T03:59:05;17.50;89.80
12164;DHT22;6145;50.192;10.064;2023-08-06T04:01:32;17.40;89.60
12164;DHT22;6145;50.192;10.064;2023-08-06T04:03:59;17.60;90.00
12164;DHT22;6145;50.192;10.064;2023-08-06T04:06:26;17.50;90.10
12164;DHT22;6145;50.192;10.064;2023-08-06T04:08:53;17.60;90.30
12164;DHT22;6145;50.192;10.064;2023-08-06T04:11:21;17.50;90.30
12164;DHT22;6145;50.192;10.064;2023-08-06T04:13:48;17.50;90.50
12164;DHT22;6145;50.192;10.064;2023-08-06T04:16:15;17.50;90.60
12164;DHT22;6145;50.192;10.064;2023-08-06T04:18:45;17.40;90.60
12164;DHT22;6145;50.192;10.064;2023-08-06T04:21:12;17.50;90.70
12164;DHT22;6145;50.192;10.064;2023-08-06T04:23:39;17.40;90.70
12164;DHT22;6145;50.192;10.064;2023-08-06T04:26:06;17.40;90.50
12164;DHT22;6145;50.192;10.064;2023-08-06T04:28:34;17.40;90.60
12164;DHT22;6145;50.192;10.064;2023-08-06T04:31:06;17.40;90.70
12164;DHT22;6145;50.192;10.064;2023-08-06T04:34:24;17.40;91.20
12164;DHT22;6145;50.192;10.064;2023-08-06T04:37:58;15.00;90.00
12164;DHT22;6145;50.192;10.064;2023-08-06T04:40:43;17.40;91.00
12164;DHT22;6145;50.192;10.064;2023-08-06T04:43:25;17.40;91.00
12164;DHT22;6145;50.192;10.064;2023-08-06T04:53:08;17.40;91.00
12164;DHT22;6145;50.192;10.064;2023-08-06T04:55:35;17.40;91.00
12164;DHT22;6145;50.192;10.064;2023-08-06T04:58:02;17.40;91.00
12164;DHT22;6145;50.192;10.064;2023-08-06T05:00:33;17.40;90.90
12164;DHT22;6145;50.192;10.064;2023-08-06T05:03:00;17.40;91.10
12164;DHT22;6145;50.192;10.064;2023-08-06T05:05:39;17.40;91.10
12164;DHT22;6145;50.192;10.064;2023-08-06T05:08:15;18.10;91.60
12164;DHT22;6145;50.192;10.064;2023-08-06T05:10:43;17.50;91.40
12164;DHT22;6145;50.192;10.064;2023-08-06T05:13:22;18.00;91.70
12164;DHT22;6145;50.192;10.064;2023-08-06T05:18:40;17.70;91.80
12164;DHT22;6145;50.192;10.064;2023-08-06T05:21:18;18.90;92.10
12164;DHT22;6145;50.192;10.064;2023-08-06T05:23:52;18.40;92.20
12164;DHT22;6145;50.192;10.064;2023-08-06T05:26:19;17.40;91.80
12164;DHT22;6145;50.192;10.064;2023-08-06T05:28:48;17.50;91.80
12164;DHT22;6145;50.192;10.064;2023-08-06T05:31:20;17.40;91.80
12164;DHT22;6145;50.192;10.064;2023-08-06T05:33:47;18.20;92.40
12164;DHT22;6145;50.192;10.064;2023-08-06T05:36:15;18.70;92.50
12164;DHT22;6145;50.192;10.064;2023-08-06T05:38:45;17.20;92.00
12164;DHT22;6145;50.192;10.064;2023-08-06T05:41:14;17.30;92.10
12164;DHT22;6145;50.192;10.064;2023-08-06T05:43:41;17.40;92.20
12164;DHT22;6145;50.192;10.064;2023-08-06T05:46:09;17.50;92.40
12164;DHT22;6145;50.192;10.064;2023-08-06T05:48:37;17.50;92.80
12164;DHT22;6145;50.192;10.064;2023-08-06T05:51:04;17.50;92.50
12164;DHT22;6145;50.192;10.064;2023-08-06T05:53:33;17.30;92.60
12164;DHT22;6145;50.192;10.064;2023-08-06T08:50:52;18.10;93.90
12164;DHT22;6145;50.192;10.064;2023-08-06T08:53:21;18.20;94.10
12164;DHT22;6145;50.192;10.064;2023-08-06T08:55:55;18.30;94.50
12164;DHT22;6145;50.192;10.064;2023-08-06T08:58:22;18.60;93.80
12164;DHT22;6145;50.192;10.064;2023-08-06T09:00:49;18.70;93.50
12164;DHT22;6145;50.192;10.064;2023-08-06T09:03:17;18.50;93.60
12164;DHT22;6145;50.192;10.064;2023-08-06T09:05:45;18.60;93.60
12164;DHT22;6145;50.192;10.064;2023-08-06T09:08:18;18.70;93.50
12164;DHT22;6145;50.192;10.064;2023-08-06T09:10:48;19.10;93.40
12164;DHT22;6145;50.192;10.064;2023-08-06T09:13:18;18.80;93.40
12164;DHT22;6145;50.192;10.064;2023-08-06T09:15:45;18.70;92.80
12164;DHT22;6145;50.192;10.064;2023-08-06T09:18:13;18.70;92.70
12164;DHT22;6145;50.192;10.064;2023-08-06T09:20:46;18.70;92.80
12164;DHT22;6145;50.192;10.064;2023-08-06T09:23:20;19.20;93.00
12164;DHT22;6145;50.192;10.064;2023-08-06T09:25:47;18.70;92.70
12164;DHT22;6145;50.192;10.064;2023-08-06T09:28:14;19.90;93.20
12164;DHT22;6145;50.192;10.064;2023-08-06T09:30:48;19.40;93.00
12164;DHT22;6145;50.192;10.064;2023-08-06T09:33:17;19.20;92.80
12164;DHT22;6145;50.192;10.064;2023-08-06T09:35:46;18.80;92.60
12164;DHT22;6145;50.192;10.064;2023-08-06T09:38:16;18.70;92.80
12164;DHT22;6145;50.192;10.064;2023-08-06T09:40:44;18.70;92.80
12164;DHT22;6145;50.192;10.064;2023-08-06T09:43:12;18.60;93.00
12164;DHT22;6145;50.192;10.064;2023-08-06T09:45:39;18.60;92.90
12164;DHT22;6145;50.192;10.064;2023-08-06T09:48:08;18.70;94.10
12164;DHT22;6145;50.192;10.064;2023-08-06T09:50:37;18.80;94.30
12164;DHT22;6145;50.192;10.064;2023-08-06T09:53:07;19.50;94.30
12164;DHT22;6145;50.192;10.064;2023-08-06T09:55:37;19.30;93.90
12164;DHT22;6145;50.192;10.064;2023-08-06T09:58:06;19.00;93.20
12164;DHT22;6145;50.192;10.064;2023-08-06T10:00:33;19.50;93.20
12164;DHT22;6145;50.192;10.064;2023-08-06T10:03:00;19.00;92.70
12164;DHT22;6145;50.192;10.064;2023-08-06T10:05:27;18.90;92.90
12164;DHT22;6145;50.192;10.064;2023-08-06T10:07:57;19.10;92.70
12164;DHT22;6145;50.192;10.064;2023-08-06T10:10:24;19.00;92.50
12164;DHT22;6145;50.192;10.064;2023-08-06T10:12:55;19.70;92.70
12164;DHT22;6145;50.192;10.064;2023-08-06T10:15:26;19.30;92.30
12164;DHT22;6145;50.192;10.064;2023-08-06T10:17:56;19.40;92.10
12164;DHT22;6145;50.192;10.064;2023-08-06T10:20:24;20.40;92.80
12164;DHT22;6145;50.192;10.064;2023-08-06T10:23:06;19.60;92.30
12164;DHT22;6145;50.192;10.064;2023-08-06T10:26:21;19.80;91.90
12164;DHT22;6145;50.192;10.064;2023-08-06T13:28:27;21.90;82.60
12164;DHT22;6145;50.192;10.064;2023-08-06T13:30:54;21.70;82.60
12164;DHT22;6145;50.192;10.064;2023-08-06T13:33:20;21.80;83.10
12164;DHT22;6145;50.192;10.064;2023-08-06T13:35:47;21.80;83.40
12164;DHT22;6145;50.192;10.064;2023-08-06T13:38:16;21.90;83.20
12164;DHT22;6145;50.192;10.064;2023-08-06T13:41:09;21.90;83.30
12164;DHT22;6145;50.192;10.064;2023-08-06T13:43:37;21.90;83.20
12164;DHT22;6145;50.192;10.064;2023-08-06T13:46:04;21.90;82.80
12164;DHT22;6145;50.192;10.064;2023-08-06T13:48:31;21.80;83.00
12164;DHT22;6145;50.192;10.064;2023-08-06T13:50:58;22.20;83.40
12164;DHT22;6145;50.192;10.064;2023-08-06T13:53:25;22.00;83.60
12164;DHT22;6145;50.192;10.064;2023-08-06T13:55:55;22.10;83.40
12164;DHT22;6145;50.192;10.064;2023-08-06T13:58:23;22.10;82.50
12164;DHT22;6145;50.192;10.064;2023-08-06T14:00:52;22.30;82.30
12164;DHT22;6145;50.192;10.064;2023-08-06T14:03:20;22.60;82.00
12164;DHT22;6145;50.192;10.064;2023-08-06T14:05:51;21.70;81.40
12164;DHT22;6145;50.192;10.064;2023-08-06T14:12:21;21.00;82.60
